createdAt,value
2022-11-05T00:00:19.371Z,100581.34
2022-11-05T00:03:04.750Z,100582.38
2022-11-05T00:05:50.572Z,100583.19
2022-11-05T00:08:35.839Z,100591.94
2022-11-05T00:11:02.438Z,100599.22
2022-11-05T00:13:47.390Z,100597.34
2022-11-05T00:16:32.258Z,100598.59
2022-11-05T00:19:07.913Z,100601.50
2022-11-05T00:21:54.507Z,100599.22
2022-11-05T00:24:40.473Z,100606.34
2022-11-05T00:27:07.956Z,100608.19
2022-11-05T00:29:34.742Z,100605.47
2022-11-05T00:32:01.747Z,100618.81
2022-11-05T00:34:28.357Z,100613.78
2022-11-05T00:36:55.615Z,100625.91
2022-11-05T00:39:22.163Z,100622.56
2022-11-05T00:42:08.655Z,100622.09
2022-11-05T00:44:53.617Z,100627.31
2022-11-05T00:47:40.430Z,100631.31
2022-11-05T00:50:07.368Z,100633.38
2022-11-05T00:53:09.728Z,100636.53
2022-11-05T00:55:42.536Z,100640.06
2022-11-05T00:58:14.421Z,100645.47
2022-11-05T01:00:48.086Z,100640.91
2022-11-05T01:03:16.706Z,100646.31
2022-11-05T01:05:45.721Z,100645.69
2022-11-05T01:08:13.641Z,100650.06
2022-11-05T01:10:45.335Z,100659.84
2022-11-05T01:13:14.334Z,100661.72
2022-11-05T01:15:41.956Z,100660.03
2022-11-05T01:18:08.613Z,100663.78
2022-11-05T01:20:35.195Z,100657.97
2022-11-05T01:23:01.759Z,100667.53
2022-11-05T01:25:28.381Z,100665.44
2022-11-05T01:27:55.075Z,100666.69
2022-11-05T01:30:22.157Z,100672.25
2022-11-05T01:32:48.998Z,100665.59
2022-11-05T01:35:17.586Z,100668.47
2022-11-05T01:37:44.859Z,100673.09
2022-11-05T01:40:17.994Z,100677.94
2022-11-05T01:42:45.485Z,100677.03
2022-11-05T01:45:26.563Z,100688.69
2022-11-05T01:48:25.437Z,100690.53
2022-11-05T01:51:11.870Z,100686.16
2022-11-05T01:53:47.960Z,100691.91
2022-11-05T01:56:29.417Z,100699.84
2022-11-05T01:59:02.138Z,100695.66
2022-11-05T02:01:29.556Z,100700.22
2022-11-05T02:03:59.972Z,100696.88
2022-11-05T02:06:29.022Z,100707.69
2022-11-05T02:09:17.992Z,100698.94
2022-11-05T02:11:44.561Z,100698.31
2022-11-05T02:14:11.089Z,100706.25
2022-11-05T02:16:49.583Z,100702.63
2022-11-05T02:20:12.764Z,100713.31
2022-11-05T02:23:11.906Z,100718.09
2022-11-05T02:25:44.545Z,100719.56
2022-11-05T02:28:48.256Z,100726.97
2022-11-05T02:31:53.451Z,100725.13
2022-11-05T02:34:33.606Z,100726.06
2022-11-05T02:37:37.977Z,100733.59
2022-11-05T02:40:26.146Z,100735.53
2022-11-05T02:43:31.203Z,100734.06
2022-11-05T02:46:26.838Z,100746.28
2022-11-05T02:49:13.504Z,100746.34
2022-11-05T02:51:51.478Z,100749.47
2022-11-05T02:54:26.892Z,100750.50
2022-11-05T02:56:55.530Z,100757.22
2022-11-05T02:59:22.101Z,100752.84
2022-11-05T03:01:49.692Z,100756.81
2022-11-05T03:04:19.508Z,100756.00
2022-11-05T03:07:05.646Z,100765.38
2022-11-05T03:09:44.230Z,100771.06
2022-11-05T03:12:19.844Z,100773.34
2022-11-05T03:15:26.670Z,100773.56
2022-11-05T03:18:24.778Z,100776.31
2022-11-05T03:20:57.202Z,100778.59
2022-11-05T03:23:51.670Z,100784.03
2022-11-05T03:26:22.264Z,100791.78
2022-11-05T03:28:55.798Z,100791.97
2022-11-05T03:31:24.884Z,100796.19
2022-11-05T03:33:54.918Z,100800.56
2022-11-05T03:36:30.929Z,100802.69
2022-11-05T03:39:02.836Z,100803.31
2022-11-05T03:41:29.665Z,100804.13
2022-11-05T03:44:01.482Z,100806.25
2022-11-05T03:46:32.817Z,100808.72
2022-11-05T03:49:04.312Z,100809.78
2022-11-05T03:51:46.029Z,100818.16
2022-11-05T03:54:13.529Z,100817.09
2022-11-05T03:57:07.104Z,100822.72
2022-11-05T03:59:43.878Z,100826.72
2022-11-05T04:02:11.973Z,100831.53
2022-11-05T04:04:39.350Z,100828.81
2022-11-05T04:07:24.387Z,100834.25
2022-11-05T04:10:09.718Z,100837.38
2022-11-05T04:12:55.144Z,100836.09
2022-11-05T04:15:21.855Z,100845.63
2022-11-05T04:17:48.390Z,100843.50
2022-11-05T04:20:33.572Z,100845.97
2022-11-05T04:23:20.887Z,100848.63
2022-11-05T04:25:47.476Z,100845.03
2022-11-05T04:28:14.590Z,100847.91
2022-11-05T04:30:41.729Z,100856.22
2022-11-05T04:33:15.631Z,100853.47
2022-11-05T04:35:49.047Z,100865.09
2022-11-05T04:38:18.879Z,100859.63
2022-11-05T04:40:47.541Z,100861.44
2022-11-05T04:43:16.795Z,100857.47
2022-11-05T04:45:44.026Z,100856.19
2022-11-05T04:48:10.976Z,100858.63
2022-11-05T04:50:37.508Z,100857.78
2022-11-05T04:53:04.042Z,100855.06
2022-11-05T04:55:31.228Z,100863.38
2022-11-05T04:57:57.796Z,100866.94
2022-11-05T05:00:24.515Z,100867.94
2022-11-05T05:02:51.069Z,100873.19
2022-11-05T05:05:17.743Z,100876.47
2022-11-05T05:07:44.491Z,100881.88
2022-11-05T05:10:11.774Z,100882.09
2022-11-05T05:12:38.566Z,100888.75
2022-11-05T05:15:05.748Z,100895.63
2022-11-05T05:17:32.351Z,100892.94
2022-11-05T05:20:17.794Z,100896.88
2022-11-05T05:22:44.336Z,100895.09
2022-11-05T05:25:10.879Z,100904.50
2022-11-05T05:27:37.426Z,100911.97
2022-11-05T05:30:04.329Z,100907.97
2022-11-05T05:32:30.938Z,100911.50
2022-11-05T05:34:57.511Z,100913.13
2022-11-05T05:37:24.134Z,100916.03
2022-11-05T05:39:50.661Z,100906.44
2022-11-05T05:42:17.253Z,100918.31
2022-11-05T05:44:43.885Z,100917.00
2022-11-05T05:47:10.489Z,100919.50
2022-11-05T05:49:37.116Z,100926.50
2022-11-05T05:52:03.853Z,100929.41
2022-11-05T05:54:32.841Z,100929.63
2022-11-05T05:57:01.701Z,100935.03
2022-11-05T05:59:28.260Z,100943.50
2022-11-05T06:01:54.936Z,100948.28
2022-11-05T06:04:21.695Z,100952.41
2022-11-05T06:06:48.269Z,100941.50
2022-11-05T06:09:15.190Z,100949.63
2022-11-05T06:11:42.218Z,100946.91
2022-11-05T06:14:14.723Z,100957.94
2022-11-05T06:16:41.303Z,100963.16
2022-11-05T06:19:08.253Z,100970.81
2022-11-05T06:21:35.269Z,100979.97
2022-11-05T06:24:02.870Z,100983.06
2022-11-05T06:26:29.939Z,100991.19
2022-11-05T06:28:56.984Z,101004.50
2022-11-05T06:31:23.730Z,101006.56
2022-11-05T06:33:50.299Z,101009.44
2022-11-05T06:36:19.089Z,101003.84
2022-11-05T06:38:45.930Z,101007.41
2022-11-05T06:41:12.493Z,101010.13
2022-11-05T06:43:39.144Z,101014.84
2022-11-05T06:46:06.136Z,101013.66
2022-11-05T06:48:33.066Z,101021.94
2022-11-05T06:50:59.648Z,101019.06
2022-11-05T06:53:26.559Z,101017.75
2022-11-05T06:55:53.192Z,101036.69
2022-11-05T06:58:19.753Z,101032.41
2022-11-05T07:00:46.613Z,101037.34
2022-11-05T07:03:14.022Z,101035.31
2022-11-05T07:05:45.432Z,101043.78
2022-11-05T07:08:12.097Z,101043.97
2022-11-05T07:10:38.684Z,101045.00
2022-11-05T07:13:08.430Z,101049.38
2022-11-05T07:15:36.579Z,101043.59
2022-11-05T07:18:04.094Z,101053.41
2022-11-05T07:20:33.879Z,101056.97
2022-11-05T07:23:09.960Z,101065.72
2022-11-05T07:25:36.700Z,101065.72
2022-11-05T07:28:04.085Z,101067.78
2022-11-05T07:30:31.818Z,101066.09
2022-11-05T07:32:58.438Z,101066.75
2022-11-05T07:35:25.822Z,101071.59
2022-11-05T07:37:54.116Z,101081.59
2022-11-05T07:40:22.002Z,101081.41
2022-11-05T07:42:51.318Z,101083.56
2022-11-05T07:45:18.560Z,101094.66
2022-11-05T07:47:50.505Z,101098.75
2022-11-05T07:50:19.118Z,101100.16
2022-11-05T07:52:46.112Z,101102.59
2022-11-05T07:55:13.288Z,101099.53
2022-11-05T07:57:47.903Z,101098.25
2022-11-05T08:00:18.181Z,101098.53
2022-11-05T08:02:44.957Z,101101.19
2022-11-05T08:05:11.748Z,101098.47
2022-11-05T08:07:38.332Z,101101.06
2022-11-05T08:10:05.197Z,101101.00
2022-11-05T08:12:32.278Z,101108.88
2022-11-05T08:14:58.930Z,101109.69
2022-11-05T08:17:25.739Z,101116.38
2022-11-05T08:19:52.341Z,101115.25
2022-11-05T08:22:18.878Z,101108.81
2022-11-05T08:24:45.415Z,101111.69
2022-11-05T08:27:11.988Z,101103.31
2022-11-05T08:29:38.562Z,101113.28
2022-11-05T08:32:05.138Z,101125.94
2022-11-05T08:34:31.692Z,101124.31
2022-11-05T08:37:00.894Z,101142.50
2022-11-05T08:39:27.573Z,101143.72
2022-11-05T08:41:54.121Z,101144.03
2022-11-05T08:44:20.664Z,101149.06
2022-11-05T08:46:47.229Z,101147.00
2022-11-05T08:49:14.158Z,101146.91
2022-11-05T08:51:40.701Z,101152.25
2022-11-05T08:54:07.463Z,101155.25
2022-11-05T08:56:34.046Z,101151.75
2022-11-05T08:59:01.080Z,101157.34
2022-11-05T09:01:27.714Z,101159.00
2022-11-05T09:03:54.397Z,101167.53
2022-11-05T09:06:20.994Z,101166.38
2022-11-05T09:08:47.560Z,101168.78
2022-11-05T09:11:14.083Z,101174.31
2022-11-05T09:13:40.702Z,101175.06
2022-11-05T09:16:22.634Z,101177.75
2022-11-05T09:18:50.175Z,101174.84
2022-11-05T09:21:17.893Z,101182.06
2022-11-05T09:23:45.439Z,101177.56
2022-11-05T09:26:13.497Z,101181.59
2022-11-05T09:28:40.913Z,101173.97
2022-11-05T09:31:09.001Z,101186.53
2022-11-05T09:33:37.667Z,101184.72
2022-11-05T09:36:05.076Z,101189.22
2022-11-05T09:38:35.118Z,101200.59
2022-11-05T09:41:14.164Z,101197.34
2022-11-05T09:43:44.488Z,101199.19
2022-11-05T09:46:17.875Z,101196.16
2022-11-05T09:48:48.407Z,101200.91
2022-11-05T09:51:22.418Z,101206.88
2022-11-05T09:53:50.758Z,101209.28
2022-11-05T09:56:26.193Z,101207.16
2022-11-05T09:59:03.012Z,101215.31
2022-11-05T10:01:33.434Z,101221.88
2022-11-05T10:04:05.963Z,101216.38
2022-11-05T10:06:32.657Z,101222.44
2022-11-05T10:09:12.200Z,101225.03
2022-11-05T10:11:48.071Z,101241.59
2022-11-05T10:14:22.505Z,101239.31
2022-11-05T10:16:57.787Z,101229.22
2022-11-05T10:19:28.327Z,101236.66
2022-11-05T10:22:09.022Z,101239.78
2022-11-05T10:24:35.742Z,101244.16
2022-11-05T10:27:03.238Z,101242.09
2022-11-05T10:29:33.185Z,101249.59
2022-11-05T10:32:03.461Z,101241.78
2022-11-05T10:34:33.748Z,101249.69
2022-11-05T10:37:00.821Z,101247.50
2022-11-05T10:39:35.232Z,101249.31
2022-11-05T10:42:19.483Z,101254.78
2022-11-05T10:45:07.655Z,101251.91
2022-11-05T10:48:40.732Z,101258.53
2022-11-05T10:51:10.537Z,101254.72
2022-11-05T10:53:41.076Z,101257.31
2022-11-05T10:56:34.623Z,101254.91
2022-11-05T10:59:06.663Z,101249.50
2022-11-05T11:01:36.584Z,101255.38
2022-11-05T11:04:12.032Z,101258.44
2022-11-05T11:06:47.923Z,101268.44
2022-11-05T11:09:31.871Z,101265.72
2022-11-05T11:12:15.472Z,101277.75
2022-11-05T11:14:42.499Z,101275.44
2022-11-05T11:17:27.610Z,101268.06
2022-11-05T11:20:31.721Z,101260.56
2022-11-05T11:23:10.146Z,101267.53
2022-11-05T11:26:01.740Z,101273.31
2022-11-05T11:28:36.008Z,101276.22
2022-11-05T11:31:15.646Z,101277.94
2022-11-05T11:33:47.115Z,101273.56
2022-11-05T11:36:17.081Z,101270.69
2022-11-05T11:38:44.056Z,101277.56
2022-11-05T11:41:27.909Z,101276.66
2022-11-05T11:44:02.143Z,101282.31
2022-11-05T11:46:32.864Z,101278.56
2022-11-05T11:49:00.660Z,101284.00
2022-11-05T11:51:35.144Z,101279.22
2022-11-05T11:54:02.841Z,101278.88
2022-11-05T11:56:32.426Z,101275.63
2022-11-05T11:59:11.436Z,101264.16
2022-11-05T12:02:06.029Z,101276.53
2022-11-05T12:04:41.671Z,101276.19
2022-11-05T12:07:29.458Z,101279.31
2022-11-05T12:10:21.669Z,101277.19
2022-11-05T12:12:57.371Z,101278.38
2022-11-05T12:15:41.957Z,101281.38
2022-11-05T12:18:26.141Z,101274.84
2022-11-05T12:21:34.654Z,101286.38
2022-11-05T12:24:36.136Z,101283.56
2022-11-05T12:27:31.885Z,101281.34
2022-11-05T12:30:08.170Z,101286.25
2022-11-05T12:33:12.156Z,101292.19
2022-11-05T12:36:06.412Z,101292.09
2022-11-05T12:38:59.106Z,101297.78
2022-11-05T12:41:46.029Z,101292.25
2022-11-05T12:44:53.727Z,101301.59
2022-11-05T12:47:40.183Z,101292.72
2022-11-05T12:50:18.798Z,101290.38
2022-11-05T12:53:01.538Z,101299.72
2022-11-05T12:55:36.909Z,101295.91
2022-11-05T12:58:32.687Z,101297.59
2022-11-05T13:01:05.420Z,101302.06
2022-11-05T13:03:40.669Z,101293.94
2022-11-05T13:06:13.436Z,101297.22
2022-11-05T13:08:46.859Z,101299.00
2022-11-05T13:11:28.523Z,101298.91
2022-11-05T13:14:08.968Z,101299.66
2022-11-05T13:16:40.362Z,101299.00
2022-11-05T13:19:43.761Z,101303.41
2022-11-05T13:22:29.018Z,101301.72
2022-11-05T13:25:00.982Z,101300.13
2022-11-05T13:27:39.210Z,101301.06
2022-11-05T13:30:09.381Z,101307.50
2022-11-05T13:32:39.283Z,101306.22
2022-11-05T13:35:24.548Z,101316.19
2022-11-05T13:38:17.911Z,101314.88
2022-11-05T13:41:03.334Z,101328.03
2022-11-05T13:43:51.686Z,101321.91
2022-11-05T13:46:18.206Z,101315.16
2022-11-05T13:48:53.748Z,101320.38
2022-11-05T13:51:23.323Z,101327.88
2022-11-05T13:54:11.156Z,101322.81
2022-11-05T13:57:07.661Z,101318.78
2022-11-05T13:59:46.427Z,101327.44
2022-11-05T14:02:24.228Z,101324.91
2022-11-05T14:05:00.556Z,101324.50
2022-11-05T14:07:37.623Z,101329.06
2022-11-05T14:10:25.169Z,101332.59
2022-11-05T14:12:54.632Z,101337.25
2022-11-05T14:15:28.159Z,101341.06
2022-11-05T14:18:07.420Z,101334.69
2022-11-05T14:20:34.093Z,101334.31
2022-11-05T14:23:19.016Z,101335.38
2022-11-05T14:25:45.504Z,101344.53
2022-11-05T14:29:10.689Z,101334.34
2022-11-05T14:32:09.167Z,101344.63
2022-11-05T14:35:03.919Z,101349.31
2022-11-05T14:37:33.898Z,101354.41
2022-11-05T14:40:43.470Z,101352.94
2022-11-05T14:43:26.520Z,101361.41
2022-11-05T14:46:02.860Z,101359.31
2022-11-05T14:48:44.697Z,101364.53
2022-11-05T14:51:36.033Z,101361.69
2022-11-05T14:54:08.522Z,101359.81
2022-11-05T14:56:57.566Z,101360.72
2022-11-05T14:59:24.076Z,101365.31
2022-11-05T15:01:58.074Z,101362.94
2022-11-05T15:04:31.901Z,101361.63
2022-11-05T15:07:04.441Z,101365.22
2022-11-05T15:09:36.679Z,101367.78
2022-11-05T15:12:19.815Z,101363.03
2022-11-05T15:15:02.060Z,101361.16
2022-11-05T15:17:38.742Z,101364.53
2022-11-05T15:20:14.340Z,101367.03
2022-11-05T15:22:44.553Z,101373.59
2022-11-05T15:25:33.616Z,101373.25
2022-11-05T15:28:38.619Z,101364.59
2022-11-05T15:31:22.774Z,101367.94
2022-11-05T15:33:49.304Z,101362.38
2022-11-05T15:36:30.661Z,101371.16
2022-11-05T15:39:27.511Z,101372.00
2022-11-05T15:41:44.974Z,101381.34
2022-11-05T15:44:26.076Z,101369.47
2022-11-05T15:47:30.766Z,101374.22
2022-11-05T15:50:03.942Z,101379.81
2022-11-05T15:52:37.154Z,101381.88
2022-11-05T15:55:25.422Z,101376.44
2022-11-05T15:57:59.504Z,101384.25
2022-11-05T16:00:28.276Z,101388.13
2022-11-05T16:03:07.528Z,101388.31
2022-11-05T16:05:41.860Z,101390.75
2022-11-05T16:08:18.966Z,101384.88
2022-11-05T16:11:00.356Z,101389.06
2022-11-05T16:13:39.931Z,101381.47
2022-11-05T16:16:24.460Z,101390.63
2022-11-05T16:18:51.434Z,101390.97
2022-11-05T16:21:22.671Z,101390.97
2022-11-05T16:23:49.212Z,101391.16
2022-11-05T16:27:01.956Z,101393.22
2022-11-05T16:29:39.019Z,101396.25
2022-11-05T16:32:30.626Z,101399.88
2022-11-05T16:35:01.435Z,101402.03
2022-11-05T16:37:35.468Z,101405.94
2022-11-05T16:40:03.636Z,101408.84
2022-11-05T16:42:33.207Z,101410.03
2022-11-05T16:44:59.778Z,101425.44
2022-11-05T16:47:26.511Z,101423.75
2022-11-05T16:49:53.296Z,101424.28
2022-11-05T16:52:19.825Z,101427.16
2022-11-05T16:54:46.496Z,101433.06
2022-11-05T16:57:30.999Z,101437.63
2022-11-05T16:59:59.845Z,101432.38
2022-11-05T17:02:27.449Z,101435.28
2022-11-05T17:04:54.086Z,101436.47
2022-11-05T17:07:20.621Z,101443.41
2022-11-05T17:09:47.415Z,101441.22
2022-11-05T17:12:14.370Z,101448.66
2022-11-05T17:14:41.279Z,101448.34
2022-11-05T17:17:07.920Z,101449.34
2022-11-05T17:19:34.812Z,101454.06
2022-11-05T17:22:01.348Z,101456.44
2022-11-05T17:24:28.010Z,101458.16
2022-11-05T17:26:54.711Z,101464.22
2022-11-05T17:29:21.475Z,101461.53
2022-11-05T17:31:48.978Z,101466.75
2022-11-05T17:34:15.554Z,101473.00
2022-11-05T17:36:42.090Z,101474.03
2022-11-05T17:39:08.648Z,101481.81
2022-11-05T17:41:35.180Z,101476.75
2022-11-05T17:44:01.733Z,101483.16
2022-11-05T17:46:28.254Z,101486.06
2022-11-05T17:48:55.156Z,101489.78
2022-11-05T17:51:22.041Z,101493.69
2022-11-05T17:53:51.672Z,101492.66
2022-11-05T17:56:30.520Z,101496.91
2022-11-05T17:59:01.487Z,101497.59
2022-11-05T18:01:31.722Z,101493.19
2022-11-05T18:04:01.269Z,101492.19
2022-11-05T18:06:30.684Z,101488.97
2022-11-05T18:08:57.292Z,101491.84
2022-11-05T18:11:23.829Z,101488.63
2022-11-05T18:13:50.478Z,101483.38
2022-11-05T18:16:17.144Z,101488.97
2022-11-05T18:18:43.730Z,101491.19
2022-11-05T18:21:10.258Z,101486.78
2022-11-05T18:23:36.843Z,101497.06
2022-11-05T18:26:11.464Z,101493.53
2022-11-05T18:28:38.106Z,101498.28
2022-11-05T18:31:08.287Z,101495.38
2022-11-05T18:33:34.983Z,101499.13
2022-11-05T18:36:01.521Z,101493.88
2022-11-05T18:38:28.071Z,101501.69
2022-11-05T18:40:54.633Z,101498.13
2022-11-05T18:43:21.173Z,101511.50
2022-11-05T18:45:55.690Z,101498.81
2022-11-05T18:48:22.250Z,101498.63
2022-11-05T18:50:49.593Z,101499.47
2022-11-05T18:53:16.304Z,101499.66
2022-11-05T18:55:44.054Z,101497.44
2022-11-05T18:58:10.878Z,101494.72
2022-11-05T19:00:41.120Z,101501.16
2022-11-05T19:03:07.863Z,101492.38
2022-11-05T19:05:34.690Z,101490.50
2022-11-05T19:08:01.201Z,101489.50
2022-11-05T19:10:28.032Z,101490.69
2022-11-05T19:12:54.742Z,101500.31
2022-11-05T19:15:21.282Z,101504.03
2022-11-05T19:17:47.931Z,101506.56
2022-11-05T19:20:14.573Z,101504.88
2022-11-05T19:22:41.098Z,101504.03
2022-11-05T19:25:08.040Z,101513.34
2022-11-05T19:27:35.441Z,101514.19
2022-11-05T19:30:02.412Z,101516.91
2022-11-05T19:32:29.265Z,101521.28
2022-11-05T19:34:55.828Z,101523.47
2022-11-05T19:37:22.491Z,101524.00
2022-11-05T19:39:49.029Z,101520.63
2022-11-05T19:42:15.557Z,101527.72
2022-11-05T19:44:43.087Z,101526.19
2022-11-05T19:47:09.891Z,101518.59
2022-11-05T19:49:36.445Z,101522.31
2022-11-05T19:52:02.981Z,101525.16
2022-11-05T19:54:29.629Z,101523.31
2022-11-05T19:56:56.229Z,101531.44
2022-11-05T19:59:22.789Z,101525.16
2022-11-05T20:01:49.451Z,101519.75
2022-11-05T20:04:16.101Z,101529.72
2022-11-05T20:06:42.634Z,101526.53
2022-11-05T20:09:27.401Z,101530.75
2022-11-05T20:11:56.283Z,101536.34
2022-11-05T20:14:24.407Z,101539.69
2022-11-05T20:16:50.939Z,101533.63
2022-11-05T20:19:19.403Z,101535.31
2022-11-05T20:21:46.152Z,101538.00
2022-11-05T20:24:20.326Z,101537.16
2022-11-05T20:26:50.100Z,101535.31
2022-11-05T20:29:16.668Z,101535.50
2022-11-05T20:31:43.184Z,101530.41
2022-11-05T20:34:10.474Z,101528.88
2022-11-05T20:36:37.028Z,101530.41
2022-11-05T20:39:03.920Z,101528.88
2022-11-05T20:41:31.482Z,101519.25
2022-11-05T20:43:59.184Z,101525.84
2022-11-05T20:46:25.887Z,101526.19
2022-11-05T20:48:53.912Z,101534.31
2022-11-05T20:51:22.827Z,101539.03
2022-11-05T20:53:49.367Z,101539.03
2022-11-05T20:56:22.670Z,101546.63
2022-11-05T20:58:50.041Z,101548.16
2022-11-05T21:01:17.415Z,101544.59
2022-11-05T21:03:45.232Z,101548.97
2022-11-05T21:06:12.512Z,101556.44
2022-11-05T21:08:39.374Z,101553.72
2022-11-05T21:11:07.189Z,101559.97
2022-11-05T21:13:34.485Z,101562.19
2022-11-05T21:16:01.496Z,101565.56
2022-11-05T21:18:31.325Z,101563.69
2022-11-05T21:21:00.391Z,101567.59
2022-11-05T21:23:28.452Z,101568.25
2022-11-05T21:25:55.400Z,101569.28
2022-11-05T21:28:22.101Z,101558.66
2022-11-05T21:30:49.154Z,101551.19
2022-11-05T21:33:18.122Z,101546.81
2022-11-05T21:35:47.147Z,101549.69
2022-11-05T21:38:16.087Z,101556.59
2022-11-05T21:40:43.266Z,101560.50
2022-11-05T21:43:09.817Z,101551.56
2022-11-05T21:45:41.061Z,101544.94
2022-11-05T21:48:09.026Z,101550.53
2022-11-05T21:50:57.116Z,101548.84
2022-11-05T21:53:42.332Z,101560.84
2022-11-05T21:56:48.078Z,101558.31
2022-11-05T21:59:36.353Z,101553.25
2022-11-05T22:02:04.227Z,101557.63
2022-11-05T22:04:32.652Z,101553.25
2022-11-05T22:06:59.667Z,101556.78
2022-11-05T22:09:26.674Z,101545.78
2022-11-05T22:11:53.860Z,101545.66
2022-11-05T22:14:20.433Z,101541.75
2022-11-05T22:16:47.152Z,101537.00
2022-11-05T22:19:13.690Z,101537.19
2022-11-05T22:21:40.256Z,101541.09
2022-11-05T22:24:07.292Z,101541.09
2022-11-05T22:26:34.550Z,101539.53
2022-11-05T22:29:01.085Z,101545.66
2022-11-05T22:31:33.125Z,101544.81
2022-11-05T22:34:02.836Z,101549.38
2022-11-05T22:36:29.363Z,101551.91
2022-11-05T22:38:55.900Z,101545.47
2022-11-05T22:41:22.644Z,101543.78
2022-11-05T22:43:49.346Z,101539.22
2022-11-05T22:46:21.490Z,101543.78
2022-11-05T22:48:49.397Z,101550.03
2022-11-05T22:51:21.345Z,101550.22
2022-11-05T22:53:48.432Z,101543.78
2022-11-05T22:56:17.541Z,101552.75
2022-11-05T22:58:44.151Z,101549.19
2022-11-05T23:01:11.871Z,101548.84
2022-11-05T23:03:40.667Z,101562.88
2022-11-05T23:06:38.245Z,101552.75
2022-11-05T23:09:26.093Z,101545.78
2022-11-05T23:11:53.860Z,101548.31
2022-11-05T23:14:20.748Z,101536.34
2022-11-05T23:17:06.084Z,101553.41
2022-11-05T23:19:51.326Z,101544.44
2022-11-05T23:22:43.981Z,101545.13
2022-11-05T23:25:19.510Z,101544.94
2022-11-05T23:27:52.052Z,101549.50
2022-11-05T23:30:21.652Z,101540.38
2022-11-05T23:32:48.473Z,101537.50
2022-11-05T23:35:15.262Z,101544.09
2022-11-05T23:38:02.288Z,101533.28
2022-11-05T23:40:30.941Z,101534.31
2022-11-05T23:43:16.619Z,101541.41
2022-11-05T23:46:02.815Z,101536.16
2022-11-05T23:48:35.578Z,101534.31
2022-11-05T23:51:07.435Z,101542.41
2022-11-05T23:53:37.320Z,101545.13
2022-11-05T23:56:14.985Z,101538.34
2022-11-05T23:58:42.508Z,101544.63
